Time;durP1;ratioP1;P1;durP2;ratioP2;P2;SDS_P1;SDS_P2;PMS_P1;PMS_P2;Temp;Humidity;BMP_temperature;BMP_pressure;BME280_temperature;BME280_humidity;BME280_pressure;Samples;Min_cycle;Max_cycle;Signal;HPM_P1;HPM_P2
2022/04/24 00:02:24;;;;;;;;;;;;;;;;;;5113819;28;19986;-45
2022/04/24 00:04:50;;;;;;;;;;;;;;;;;;5113912;28;19932;-48
2022/04/24 00:07:17;;;;;;;;;;;;;;;;;;5113078;28;19915;-58
2022/04/24 00:09:43;;;;;;;;;;;;;;;;;;5113486;28;19962;-58
2022/04/24 00:12:15;;;;;;;;;;;;;;;;;;5105045;28;19912;-53
2022/04/24 00:14:42;;;;;;;;;;;;;;;;;;5093020;28;19961;-54
2022/04/24 00:17:08;;;;;;;;;;;;;;;;;;5092309;28;19969;-58
2022/04/24 00:19:35;;;;;;;;;;;;;;;;;;5093559;28;19943;-48
2022/04/24 00:22:01;;;;;;;;;;;;;;;;;;5093132;28;19915;-57
2022/04/24 00:24:27;;;;;;;;;;;;;;;;;;5092886;28;19908;-58
2022/04/24 00:26:54;;;;;;;;;;;;;;;;;;5093049;28;19916;-55
2022/04/24 00:29:20;;;;;;;;;;;;;;;;;;5093001;28;19912;-56
2022/04/24 00:31:47;;;;;;;;;;;;;;;;;;5093010;28;19915;-56
2022/04/24 00:34:13;;;;;;;;;;;;;;;;;;5094497;28;19934;-54
2022/04/24 00:36:40;;;;;;;;;;;;;;;;;;5112667;28;20391;-56
2022/04/24 00:39:06;;;;;;;;;;;;;;;;;;5111898;28;19908;-54
2022/04/24 00:41:33;;;;;;;;;;;;;;;;;;5093066;28;19909;-54
2022/04/24 00:43:59;;;;;;;;;;;;;;;;;;5092972;28;19965;-54
2022/04/24 00:46:26;;;;;;;;;;;;;;;;;;5092720;28;19916;-58
2022/04/24 00:48:52;;;;;;;;;;;;;;;;;;5092693;28;19973;-55
2022/04/24 00:51:19;;;;;;;;;;;;;;;;;;5092685;28;19958;-57
2022/04/24 00:53:45;;;;;;;;;;;;;;;;;;5090914;28;19908;-50
2022/04/24 00:56:12;;;;;;;;;;;;;;;;;;5092395;28;19919;-54
2022/04/24 00:58:38;;;;;;;;;;;;;;;;;;5093126;28;19908;-57
2022/04/24 01:01:05;;;;;;;;;;;;;;;;;;5092692;28;19915;-53
2022/04/24 01:03:31;;;;;;;;;;;;;;;;;;5092753;28;20315;-56
2022/04/24 01:05:58;;;;;;;;;;;;;;;;;;5092212;28;19920;-58
2022/04/24 01:08:24;;;;;;;;;;;;;;;;;;5092707;28;19912;-49
2022/04/24 01:10:51;;;;;;;;;;;;;;;;;;5098226;28;19907;-59
2022/04/24 01:13:17;;;;;;;;;;;;;;;;;;5112103;28;19912;-61
2022/04/24 01:15:44;;;;;;;;;;;;;;;;;;5112546;28;19915;-52
2022/04/24 01:18:10;;;;;;;;;;;;;;;;;;5116564;28;19908;-57
2022/04/24 01:20:37;;;;;;;;;;;;;;;;;;5117121;28;19939;-57
2022/04/24 01:23:04;;;;;;;;;;;;;;;;;;5116272;28;19915;-59
2022/04/24 01:25:30;;;;;;;;;;;;;;;;;;5116343;28;20008;-54
2022/04/24 01:27:57;;;;;;;;;;;;;;;;;;5116223;27;19915;-53
2022/04/24 01:30:23;;;;;;;;;;;;;;;;;;5116311;28;19911;-50
2022/04/24 01:32:50;;;;;;;;;;;;;;;;;;5116358;28;20369;-53
2022/04/24 01:35:18;;;;;;;;;;;;;;;;;;5116304;28;19908;-57
2022/04/24 01:37:44;;;;;;;;;;;;;;;;;;5116339;28;19908;-53
2022/04/24 01:40:11;;;;;;;;;;;;;;;;;;5116243;28;20354;-51
2022/04/24 01:42:37;;;;;;;;;;;;;;;;;;5116418;28;19908;-58
2022/04/24 01:45:04;;;;;;;;;;;;;;;;;;5115644;28;20188;-56
2022/04/24 01:47:30;;;;;;;;;;;;;;;;;;5115879;28;19916;-58
2022/04/24 01:49:57;;;;;;;;;;;;;;;;;;5115972;28;19911;-56
2022/04/24 01:52:24;;;;;;;;;;;;;;;;;;5109915;28;19908;-51
2022/04/24 01:54:50;;;;;;;;;;;;;;;;;;5095781;28;19921;-52
2022/04/24 01:57:16;;;;;;;;;;;;;;;;;;5095863;28;19908;-54
2022/04/24 01:59:43;;;;;;;;;;;;;;;;;;5094733;28;20251;-52
2022/04/24 02:02:09;;;;;;;;;;;;;;;;;;5102652;28;20256;-56
2022/04/24 02:04:36;;;;;;;;;;;;;;;;;;5114290;28;19938;-53
2022/04/24 02:07:02;;;;;;;;;;;;;;;;;;5115363;28;19916;-53
2022/04/24 02:09:29;;;;;;;;;;;;;;;;;;5115596;28;19931;-46
2022/04/24 02:11:56;;;;;;;;;;;;;;;;;;5115588;28;19912;-47
2022/04/24 02:14:22;;;;;;;;;;;;;;;;;;5115577;28;20366;-46
2022/04/24 02:16:49;;;;;;;;;;;;;;;;;;5115014;28;20381;-43
2022/04/24 02:19:15;;;;;;;;;;;;;;;;;;5115530;28;19908;-54
2022/04/24 02:21:41;;;;;;;;;;;;;;;;;;5115457;28;19908;-53
2022/04/24 02:24:08;;;;;;;;;;;;;;;;;;5115654;28;19908;-54
2022/04/24 02:26:34;;;;;;;;;;;;;;;;;;5115082;28;19974;-55
2022/04/24 02:29:01;;;;;;;;;;;;;;;;;;5113950;28;19908;-57
2022/04/24 02:31:27;;;;;;;;;;;;;;;;;;5115355;28;20378;-57
2022/04/24 02:33:54;;;;;;;;;;;;;;;;;;5114306;28;19908;-57
2022/04/24 02:36:20;;;;;;;;;;;;;;;;;;5114558;28;19919;-57
2022/04/24 02:38:47;;;;;;;;;;;;;;;;;;5114757;28;20262;-60
2022/04/24 02:41:13;;;;;;;;;;;;;;;;;;5114783;28;20006;-55
2022/04/24 02:43:40;;;;;;;;;;;;;;;;;;5114456;28;19912;-58
2022/04/24 02:46:06;;;;;;;;;;;;;;;;;;5115249;27;19908;-58
2022/04/24 02:48:33;;;;;;;;;;;;;;;;;;5115139;28;19908;-59
2022/04/24 02:50:59;;;;;;;;;;;;;;;;;;5114844;28;19951;-57
2022/04/24 02:53:26;;;;;;;;;;;;;;;;;;5114621;28;19947;-52
2022/04/24 02:55:52;;;;;;;;;;;;;;;;;;5113580;28;20317;-55
2022/04/24 02:58:21;;;;;;;;;;;;;;;;;;5115081;28;20278;-56
2022/04/24 03:00:50;;;;;;;;;;;;;;;;;;5110400;28;19919;-48
2022/04/24 03:03:20;;;;;;;;;;;;;;;;;;5094133;28;20420;-50
2022/04/24 03:05:46;;;;;;;;;;;;;;;;;;5094030;28;20004;-55
2022/04/24 03:08:13;;;;;;;;;;;;;;;;;;5094523;28;20011;-47
2022/04/24 03:10:40;;;;;;;;;;;;;;;;;;5094466;28;19919;-51
2022/04/24 03:13:06;;;;;;;;;;;;;;;;;;5093756;28;19908;-53
2022/04/24 03:15:32;;;;;;;;;;;;;;;;;;5092871;28;19915;-47
2022/04/24 03:17:59;;;;;;;;;;;;;;;;;;5094287;28;20320;-49
2022/04/24 03:20:25;;;;;;;;;;;;;;;;;;5094317;28;20003;-52
2022/04/24 03:22:52;;;;;;;;;;;;;;;;;;5094295;28;19916;-47
2022/04/24 03:25:18;;;;;;;;;;;;;;;;;;5093676;28;19931;-49
2022/04/24 03:27:45;;;;;;;;;;;;;;;;;;5093803;28;19916;-56
2022/04/24 03:30:12;;;;;;;;;;;;;;;;;;5093970;28;19908;-48
2022/04/24 03:32:38;;;;;;;;;;;;;;;;;;5093772;28;20019;-44
2022/04/24 03:35:05;;;;;;;;;;;;;;;;;;5106883;28;19907;-51
2022/04/24 03:37:32;;;;;;;;;;;;;;;;;;5114043;28;19915;-48
2022/04/24 03:39:59;;;;;;;;;;;;;;;;;;5114108;28;19908;-50
2022/04/24 03:42:26;;;;;;;;;;;;;;;;;;5114103;28;19974;-46
2022/04/24 03:44:52;;;;;;;;;;;;;;;;;;5113908;28;19978;-44
2022/04/24 03:47:19;;;;;;;;;;;;;;;;;;5113704;28;19920;-47
2022/04/24 03:49:45;;;;;;;;;;;;;;;;;;5113973;28;19908;-50
2022/04/24 03:52:12;;;;;;;;;;;;;;;;;;5113898;28;19930;-49
2022/04/24 03:54:38;;;;;;;;;;;;;;;;;;5113517;28;20362;-55
2022/04/24 03:57:05;;;;;;;;;;;;;;;;;;5112954;28;19904;-55
2022/04/24 03:59:31;;;;;;;;;;;;;;;;;;5113293;28;20230;-53
2022/04/24 04:01:58;;;;;;;;;;;;;;;;;;5113385;28;19911;-51
2022/04/24 04:04:25;;;;;;;;;;;;;;;;;;5113276;28;19999;-56
2022/04/24 04:06:52;;;;;;;;;;;;;;;;;;5113473;28;20438;-52
2022/04/24 04:09:18;;;;;;;;;;;;;;;;;;5111859;28;19907;-47
2022/04/24 04:11:45;;;;;;;;;;;;;;;;;;5113512;28;20251;-54
2022/04/24 04:14:11;;;;;;;;;;;;;;;;;;5113525;28;19947;-52
2022/04/24 04:16:38;;;;;;;;;;;;;;;;;;5113429;28;19908;-54
2022/04/24 04:19:04;;;;;;;;;;;;;;;;;;5113524;28;19908;-51
2022/04/24 04:21:31;;;;;;;;;;;;;;;;;;5112406;28;20367;-50
2022/04/24 04:23:57;;;;;;;;;;;;;;;;;;5113686;28;19915;-48
2022/04/24 04:26:23;;;;;;;;;;;;;;;;;;5113105;28;19912;-55
2022/04/24 04:28:51;;;;;;;;;;;;;;;;;;5112826;28;19911;-52
2022/04/24 04:31:17;;;;;;;;;;;;;;;;;;5112926;28;19908;-53
2022/04/24 04:33:43;;;;;;;;;;;;;;;;;;5111841;28;19933;-47
2022/04/24 04:36:10;;;;;;;;;;;;;;;;;;5113336;28;19908;-51
2022/04/24 04:38:37;;;;;;;;;;;;;;;;;;5113016;28;19915;-52
2022/04/24 04:41:04;;;;;;;;;;;;;;;;;;5112859;28;19908;-48
2022/04/24 04:43:30;;;;;;;;;;;;;;;;;;5111815;28;19908;-45
2022/04/24 04:45:57;;;;;;;;;;;;;;;;;;5113215;28;19912;-52
2022/04/24 04:48:23;;;;;;;;;;;;;;;;;;5112930;28;19922;-46
2022/04/24 04:50:49;;;;;;;;;;;;;;;;;;5113208;28;19912;-49
2022/04/24 04:53:16;;;;;;;;;;;;;;;;;;5116592;28;19907;-49
2022/04/24 04:55:42;;;;;;;;;;;;;;;;;;5117453;28;19907;-48
2022/04/24 04:58:09;;;;;;;;;;;;;;;;;;5117433;28;19912;-42
2022/04/24 05:00:35;;;;;;;;;;;;;;;;;;5116779;28;19993;-49
2022/04/24 05:03:02;;;;;;;;;;;;;;;;;;5117447;28;19974;-48
2022/04/24 05:05:28;;;;;;;;;;;;;;;;;;5117547;27;19951;-49
2022/04/24 05:07:55;;;;;;;;;;;;;;;;;;5117294;28;19935;-48
2022/04/24 05:10:21;;;;;;;;;;;;;;;;;;5117206;28;19912;-43
2022/04/24 05:12:48;;;;;;;;;;;;;;;;;;5117189;28;19953;-52
2022/04/24 05:15:15;;;;;;;;;;;;;;;;;;5116781;28;20356;-49
2022/04/24 05:17:41;;;;;;;;;;;;;;;;;;5116632;28;20243;-46
2022/04/24 05:20:08;;;;;;;;;;;;;;;;;;5116558;28;19915;-53
2022/04/24 05:22:34;;;;;;;;;;;;;;;;;;5116240;28;19908;-47
2022/04/24 05:25:01;;;;;;;;;;;;;;;;;;5115898;28;19907;-45
2022/04/24 05:27:27;;;;;;;;;;;;;;;;;;5116597;28;19920;-57
2022/04/24 05:29:54;;;;;;;;;;;;;;;;;;5116319;28;20251;-51
2022/04/24 05:32:20;;;;;;;;;;;;;;;;;;5116668;28;20383;-48
2022/04/24 05:34:46;;;;;;;;;;;;;;;;;;5116603;28;20275;-55
2022/04/24 05:37:13;;;;;;;;;;;;;;;;;;5115673;28;19942;-57
2022/04/24 05:39:39;;;;;;;;;;;;;;;;;;5116646;28;19916;-50
2022/04/24 05:42:06;;;;;;;;;;;;;;;;;;5116526;28;19908;-46
2022/04/24 05:44:32;;;;;;;;;;;;;;;;;;5116674;28;19960;-43
2022/04/24 05:46:59;;;;;;;;;;;;;;;;;;5116252;28;19916;-52
2022/04/24 05:49:26;;;;;;;;;;;;;;;;;;5116391;28;20243;-50
2022/04/24 05:51:52;;;;;;;;;;;;;;;;;;5116956;28;19960;-53
2022/04/24 05:54:18;;;;;;;;;;;;;;;;;;5116197;28;19914;-51
2022/04/24 05:56:45;;;;;;;;;;;;;;;;;;5115687;28;19914;-52
2022/04/24 05:59:11;;;;;;;;;;;;;;;;;;5115875;28;20369;-52
2022/04/24 06:01:38;;;;;;;;;;;;;;;;;;5115897;28;19938;-52
2022/04/24 06:04:04;;;;;;;;;;;;;;;;;;5115291;28;19950;-50
2022/04/24 06:06:32;;;;;;;;;;;;;;;;;;5115701;28;19916;-55
2022/04/24 06:08:58;;;;;;;;;;;;;;;;;;5115851;28;19908;-58
2022/04/24 06:11:25;;;;;;;;;;;;;;;;;;5115359;28;19907;-52
2022/04/24 06:13:51;;;;;;;;;;;;;;;;;;5115733;28;19915;-49
2022/04/24 06:16:18;;;;;;;;;;;;;;;;;;5115993;27;19994;-52
2022/04/24 06:18:44;;;;;;;;;;;;;;;;;;5115885;28;19915;-49
2022/04/24 06:21:11;;;;;;;;;;;;;;;;;;5115655;28;19992;-53
2022/04/24 06:23:37;;;;;;;;;;;;;;;;;;5115351;28;20251;-45
2022/04/24 06:26:04;;;;;;;;;;;;;;;;;;5115702;28;19908;-51
2022/04/24 06:28:30;;;;;;;;;;;;;;;;;;5114377;28;19937;-58
2022/04/24 06:30:57;;;;;;;;;;;;;;;;;;5114477;28;20363;-51
2022/04/24 06:33:24;;;;;;;;;;;;;;;;;;5115106;28;20311;-49
2022/04/24 06:35:50;;;;;;;;;;;;;;;;;;5106331;28;19961;-55
2022/04/24 06:38:17;;;;;;;;;;;;;;;;;;5094950;28;19916;-58
2022/04/24 06:40:45;;;;;;;;;;;;;;;;;;5094016;28;19905;-58
2022/04/24 06:43:11;;;;;;;;;;;;;;;;;;5094368;28;19948;-54
2022/04/24 06:45:38;;;;;;;;;;;;;;;;;;5094614;28;19904;-58
2022/04/24 06:48:09;;;;;;;;;;;;;;;;;;5094279;28;19916;-43
2022/04/24 06:50:36;;;;;;;;;;;;;;;;;;5093923;28;19908;-46
2022/04/24 06:53:02;;;;;;;;;;;;;;;;;;5094225;28;19916;-54
2022/04/24 06:55:29;;;;;;;;;;;;;;;;;;5094749;28;19908;-54
2022/04/24 06:57:55;;;;;;;;;;;;;;;;;;5094399;28;19956;-58
2022/04/24 07:00:22;;;;;;;;;;;;;;;;;;5094396;28;19915;-55
2022/04/24 07:02:48;;;;;;;;;;;;;;;;;;5094394;28;19959;-54
2022/04/24 07:05:14;;;;;;;;;;;;;;;;;;5092695;28;19928;-56
2022/04/24 07:07:41;;;;;;;;;;;;;;;;;;5094075;28;20014;-56
2022/04/24 07:10:07;;;;;;;;;;;;;;;;;;5094785;28;19908;-55
2022/04/24 07:12:34;;;;;;;;;;;;;;;;;;5094309;28;19954;-52
2022/04/24 07:15:00;;;;;;;;;;;;;;;;;;5093941;28;19908;-56
2022/04/24 07:17:27;;;;;;;;;;;;;;;;;;5094032;28;19978;-48
2022/04/24 07:19:53;;;;;;;;;;;;;;;;;;5094505;28;19912;-55
2022/04/24 07:22:20;;;;;;;;;;;;;;;;;;5099889;28;20259;-53
2022/04/24 07:24:46;;;;;;;;;;;;;;;;;;5114679;28;20333;-52
2022/04/24 07:27:13;;;;;;;;;;;;;;;;;;5113794;28;19935;-56
2022/04/24 07:29:39;;;;;;;;;;;;;;;;;;5114227;28;20057;-49
2022/04/24 07:32:06;;;;;;;;;;;;;;;;;;5113678;28;19939;-58
2022/04/24 07:34:32;;;;;;;;;;;;;;;;;;5114536;28;19918;-50
2022/04/24 07:36:59;;;;;;;;;;;;;;;;;;5114211;28;19908;-49
2022/04/24 07:39:25;;;;;;;;;;;;;;;;;;5113868;28;19908;-53
2022/04/24 07:41:52;;;;;;;;;;;;;;;;;;5114299;28;19908;-47
2022/04/24 07:44:18;;;;;;;;;;;;;;;;;;5114419;28;19915;-53
2022/04/24 07:46:45;;;;;;;;;;;;;;;;;;5113739;28;20011;-55
2022/04/24 07:49:11;;;;;;;;;;;;;;;;;;5113804;28;19972;-44
2022/04/24 07:51:37;;;;;;;;;;;;;;;;;;5113913;28;19910;-40
2022/04/24 07:54:04;;;;;;;;;;;;;;;;;;5113987;28;19908;-47
2022/04/24 07:56:30;;;;;;;;;;;;;;;;;;5113674;28;20017;-44
2022/04/24 07:58:57;;;;;;;;;;;;;;;;;;5113537;28;19994;-43
2022/04/24 08:01:23;;;;;;;;;;;;;;;;;;5113442;28;19911;-40
2022/04/24 08:03:50;;;;;;;;;;;;;;;;;;5113487;28;20365;-44
2022/04/24 08:06:16;;;;;;;;;;;;;;;;;;5073219;28;20260;-45
2022/04/24 08:08:43;;;;;;;;;;;;;;;;;;5073121;28;19909;-50
2022/04/24 08:11:09;;;;;;;;;;;;;;;;;;5072863;28;19948;-43
2022/04/24 08:13:36;;;;;;;;;;;;;;;;;;5073160;28;20378;-45
2022/04/24 08:16:03;;;;;;;;;;;;;;;;;;5072613;28;20440;-50
2022/04/24 08:18:29;;;;;;;;;;;;;;;;;;5058008;28;19912;-43
2022/04/24 08:20:56;;;;;;;;;;;;;;;;;;5052757;28;19912;-46
2022/04/24 08:23:25;;;;;;;;;;;;;;;;;;5052719;28;19948;-52
2022/04/24 08:25:52;;;;;;;;;;;;;;;;;;5051916;28;20310;-45
2022/04/24 08:28:20;;;;;;;;;;;;;;;;;;5051800;28;20331;-46
2022/04/24 08:30:48;;;;;;;;;;;;;;;;;;5052664;28;19909;-46
2022/04/24 08:33:15;;;;;;;;;;;;;;;;;;5052431;28;19913;-51
2022/04/24 08:35:42;;;;;;;;;;;;;;;;;;5052671;28;19916;-48
2022/04/24 08:38:08;;;;;;;;;;;;;;;;;;5062036;28;19931;-43
2022/04/24 08:40:35;;;;;;;;;;;;;;;;;;5072605;28;19915;-47
2022/04/24 08:43:01;;;;;;;;;;;;;;;;;;5072320;28;20469;-44
2022/04/24 08:45:28;;;;;;;;;;;;;;;;;;5072684;28;19976;-44
2022/04/24 08:47:54;;;;;;;;;;;;;;;;;;5072665;28;19927;-49
2022/04/24 08:50:21;;;;;;;;;;;;;;;;;;5072841;28;19915;-46
2022/04/24 08:52:48;;;;;;;;;;;;;;;;;;5072200;28;19955;-44
2022/04/24 08:55:14;;;;;;;;;;;;;;;;;;5072539;28;20368;-43
2022/04/24 08:57:41;;;;;;;;;;;;;;;;;;5072658;28;19931;-49
2022/04/24 09:00:07;;;;;;;;;;;;;;;;;;5073027;28;19932;-50
2022/04/24 09:02:33;;;;;;;;;;;;;;;;;;5072883;28;19943;-47
2022/04/24 09:05:00;;;;;;;;;;;;;;;;;;5091828;28;20374;-45
2022/04/24 09:07:26;;;;;;;;;;;;;;;;;;5113234;28;20010;-58
2022/04/24 09:09:53;;;;;;;;;;;;;;;;;;5113170;28;19957;-49
2022/04/24 09:12:20;;;;;;;;;;;;;;;;;;5112620;28;20113;-51
2022/04/24 09:14:46;;;;;;;;;;;;;;;;;;5112873;28;19931;-50
2022/04/24 09:17:13;;;;;;;;;;;;;;;;;;5112428;28;19960;-52
2022/04/24 09:19:39;;;;;;;;;;;;;;;;;;5112543;28;19912;-54
2022/04/24 09:22:06;;;;;;;;;;;;;;;;;;5112728;28;19915;-44
2022/04/24 09:24:33;;;;;;;;;;;;;;;;;;5112782;28;19915;-48
2022/04/24 09:26:59;;;;;;;;;;;;;;;;;;5112928;28;19965;-51
2022/04/24 09:29:25;;;;;;;;;;;;;;;;;;5113040;28;20411;-44
2022/04/24 09:31:52;;;;;;;;;;;;;;;;;;5112448;28;20320;-45
2022/04/24 09:34:18;;;;;;;;;;;;;;;;;;5112817;28;20374;-49
2022/04/24 09:36:45;;;;;;;;;;;;;;;;;;5112582;28;20364;-46
2022/04/24 09:39:11;;;;;;;;;;;;;;;;;;5115803;28;19908;-50
2022/04/24 09:41:39;;;;;;;;;;;;;;;;;;5116858;27;20003;-55
2022/04/24 09:44:05;;;;;;;;;;;;;;;;;;5116354;28;19960;-44
2022/04/24 09:46:33;;;;;;;;;;;;;;;;;;5116902;28;19915;-55
2022/04/24 09:49:01;;;;;;;;;;;;;;;;;;5116730;27;19911;-49
2022/04/24 09:51:27;;;;;;;;;;;;;;;;;;5115678;28;19960;-53
2022/04/24 09:53:55;;;;;;;;;;;;;;;;;;5116555;28;19991;-50
2022/04/24 09:56:22;;;;;;;;;;;;;;;;;;5116908;28;20234;-46
2022/04/24 09:58:48;;;;;;;;;;;;;;;;;;5116310;28;19915;-47
2022/04/24 10:01:16;;;;;;;;;;;;;;;;;;5116636;28;19908;-49
2022/04/24 10:03:42;;;;;;;;;;;;;;;;;;5116550;27;19915;-41
2022/04/24 10:06:09;;;;;;;;;;;;;;;;;;5116178;28;20041;-43
2022/04/24 10:08:35;;;;;;;;;;;;;;;;;;5116342;28;19920;-46
2022/04/24 10:11:02;;;;;;;;;;;;;;;;;;5116191;28;19907;-54
2022/04/24 10:13:28;;;;;;;;;;;;;;;;;;5115889;28;19914;-41
2022/04/24 10:15:55;;;;;;;;;;;;;;;;;;5116192;28;19908;-46
2022/04/24 10:18:22;;;;;;;;;;;;;;;;;;5115746;28;20007;-49
2022/04/24 10:20:48;;;;;;;;;;;;;;;;;;5115799;28;20307;-50
2022/04/24 10:23:15;;;;;;;;;;;;;;;;;;5115536;28;20289;-47
2022/04/24 10:25:41;;;;;;;;;;;;;;;;;;5116018;28;19915;-52
2022/04/24 10:28:07;;;;;;;;;;;;;;;;;;5115495;28;20422;-49
2022/04/24 10:30:35;;;;;;;;;;;;;;;;;;5115819;28;20266;-47
2022/04/24 10:33:01;;;;;;;;;;;;;;;;;;5116079;28;19907;-48
2022/04/24 10:35:28;;;;;;;;;;;;;;;;;;5115468;28;19960;-47
2022/04/24 10:37:54;;;;;;;;;;;;;;;;;;5115022;28;19907;-44
2022/04/24 10:40:21;;;;;;;;;;;;;;;;;;5115736;28;19959;-51
2022/04/24 10:42:48;;;;;;;;;;;;;;;;;;5115451;28;19915;-48
2022/04/24 10:45:14;;;;;;;;;;;;;;;;;;5115753;28;19908;-55
2022/04/24 10:47:42;;;;;;;;;;;;;;;;;;5114459;28;19916;-59
2022/04/24 10:50:09;;;;;;;;;;;;;;;;;;5114333;27;19908;-50
2022/04/24 10:52:35;;;;;;;;;;;;;;;;;;5115758;28;20304;-53
2022/04/24 10:55:02;;;;;;;;;;;;;;;;;;5115780;28;19907;-51
2022/04/24 10:57:28;;;;;;;;;;;;;;;;;;5115370;28;20420;-51
2022/04/24 10:59:55;;;;;;;;;;;;;;;;;;5115152;28;20377;-42
2022/04/24 11:02:22;;;;;;;;;;;;;;;;;;5115171;28;20018;-53
2022/04/24 11:04:48;;;;;;;;;;;;;;;;;;5115037;28;19916;-54
2022/04/24 11:07:15;;;;;;;;;;;;;;;;;;5115134;28;19930;-49
2022/04/24 11:09:41;;;;;;;;;;;;;;;;;;5115306;28;19908;-49
2022/04/24 11:12:08;;;;;;;;;;;;;;;;;;5115343;28;20282;-50
2022/04/24 11:14:34;;;;;;;;;;;;;;;;;;5114868;28;19923;-55
2022/04/24 11:17:01;;;;;;;;;;;;;;;;;;5113674;28;19914;-53
2022/04/24 11:19:28;;;;;;;;;;;;;;;;;;5115188;28;19912;-50
2022/04/24 11:21:54;;;;;;;;;;;;;;;;;;5115306;28;19908;-47
2022/04/24 11:24:21;;;;;;;;;;;;;;;;;;5115331;28;19915;-54
2022/04/24 11:26:48;;;;;;;;;;;;;;;;;;5114853;28;19922;-50
2022/04/24 11:29:14;;;;;;;;;;;;;;;;;;5114615;28;19908;-55
2022/04/24 11:31:40;;;;;;;;;;;;;;;;;;5114883;28;20380;-50
2022/04/24 11:34:07;;;;;;;;;;;;;;;;;;5114877;28;19908;-53
2022/04/24 11:36:33;;;;;;;;;;;;;;;;;;5114915;28;19908;-49
2022/04/24 11:39:01;;;;;;;;;;;;;;;;;;5114723;28;19919;-50
2022/04/24 11:41:28;;;;;;;;;;;;;;;;;;5114064;28;20358;-56
2022/04/24 11:43:54;;;;;;;;;;;;;;;;;;5114301;28;19915;-53
2022/04/24 11:51:50;;;;;;;;;;;;;;;;;;5114341;28;19914;-50
2022/04/24 11:54:16;;;;;;;;;;;;;;;;;;5114310;28;20010;-52
2022/04/24 11:56:43;;;;;;;;;;;;;;;;;;5113865;28;19915;-49
2022/04/24 11:59:09;;;;;;;;;;;;;;;;;;5113870;28;19935;-47
2022/04/24 12:01:36;;;;;;;;;;;;;;;;;;5113856;28;19908;-54
2022/04/24 12:04:03;;;;;;;;;;;;;;;;;;5114023;28;19995;-56
2022/04/24 12:06:29;;;;;;;;;;;;;;;;;;5113926;28;19923;-52
2022/04/24 12:08:56;;;;;;;;;;;;;;;;;;5114066;28;19940;-52
2022/04/24 12:11:22;;;;;;;;;;;;;;;;;;5113287;28;20273;-50
2022/04/24 12:13:48;;;;;;;;;;;;;;;;;;5112691;28;19986;-45
2022/04/24 12:16:15;;;;;;;;;;;;;;;;;;5113629;28;19912;-44
2022/04/24 12:18:41;;;;;;;;;;;;;;;;;;5113958;28;19915;-48
2022/04/24 12:21:08;;;;;;;;;;;;;;;;;;5113464;28;19908;-43
2022/04/24 12:23:34;;;;;;;;;;;;;;;;;;5113753;28;20250;-40
2022/04/24 12:26:02;;;;;;;;;;;;;;;;;;5113455;28;19908;-48
2022/04/24 12:28:29;;;;;;;;;;;;;;;;;;5099423;28;20274;-43
2022/04/24 12:30:57;;;;;;;;;;;;;;;;;;5093054;28;19908;-52
2022/04/24 12:33:23;;;;;;;;;;;;;;;;;;5092514;28;19912;-48
2022/04/24 12:35:50;;;;;;;;;;;;;;;;;;5092857;28;19919;-40
2022/04/24 12:38:16;;;;;;;;;;;;;;;;;;5092552;28;20339;-43
2022/04/24 12:40:43;;;;;;;;;;;;;;;;;;5092973;28;19908;-43
2022/04/24 12:43:09;;;;;;;;;;;;;;;;;;5094665;28;19919;-48
2022/04/24 12:45:36;;;;;;;;;;;;;;;;;;5113538;28;20266;-45
2022/04/24 12:48:02;;;;;;;;;;;;;;;;;;5113521;28;19983;-41
2022/04/24 12:50:29;;;;;;;;;;;;;;;;;;5113580;28;19998;-45
2022/04/24 12:52:55;;;;;;;;;;;;;;;;;;5113587;28;20282;-41
2022/04/24 12:55:23;;;;;;;;;;;;;;;;;;5113033;28;19918;-42
2022/04/24 12:57:54;;;;;;;;;;;;;;;;;;5113686;28;19958;-49
2022/04/24 13:00:20;;;;;;;;;;;;;;;;;;5113626;28;20292;-44
2022/04/24 13:02:47;;;;;;;;;;;;;;;;;;5113922;28;19908;-41
2022/04/24 13:05:14;;;;;;;;;;;;;;;;;;5112975;28;19943;-48
2022/04/24 13:07:40;;;;;;;;;;;;;;;;;;5113692;28;19915;-48
2022/04/24 13:10:07;;;;;;;;;;;;;;;;;;5113771;28;19947;-47
2022/04/24 13:12:34;;;;;;;;;;;;;;;;;;5113758;28;19911;-42
2022/04/24 13:15:00;;;;;;;;;;;;;;;;;;5117427;28;19942;-48
2022/04/24 13:20:11;;;;;;;;;;;;;;;;;;5117463;28;19919;-51
2022/04/24 13:22:38;;;;;;;;;;;;;;;;;;5117415;28;20437;-48
2022/04/24 13:25:04;;;;;;;;;;;;;;;;;;5116852;28;20380;-39
2022/04/24 13:27:32;;;;;;;;;;;;;;;;;;5117190;28;19923;-55
2022/04/24 13:29:58;;;;;;;;;;;;;;;;;;5117555;28;19915;-42
2022/04/24 13:32:27;;;;;;;;;;;;;;;;;;5117444;28;20042;-43
2022/04/24 13:34:53;;;;;;;;;;;;;;;;;;5117418;28;19990;-47
2022/04/24 13:40:05;;;;;;;;;;;;;;;;;;5116825;28;19953;-42
2022/04/24 13:42:31;;;;;;;;;;;;;;;;;;5116872;28;19915;-45
2022/04/24 13:44:58;;;;;;;;;;;;;;;;;;5116710;28;20041;-46
2022/04/24 13:47:24;;;;;;;;;;;;;;;;;;5116655;28;19916;-57
2022/04/24 13:49:51;;;;;;;;;;;;;;;;;;5116798;28;19908;-51
2022/04/24 13:52:18;;;;;;;;;;;;;;;;;;5116982;28;19908;-47
2022/04/24 13:54:45;;;;;;;;;;;;;;;;;;5116717;28;19908;-54
2022/04/24 13:57:11;;;;;;;;;;;;;;;;;;5115966;28;19915;-44
2022/04/24 13:59:42;;;;;;;;;;;;;;;;;;5116467;28;19907;-52
2022/04/24 14:02:10;;;;;;;;;;;;;;;;;;5116688;28;19915;-46
2022/04/24 14:04:37;;;;;;;;;;;;;;;;;;5116445;28;19920;-51
2022/04/24 14:07:03;;;;;;;;;;;;;;;;;;5115997;27;19916;-47
2022/04/24 14:09:30;;;;;;;;;;;;;;;;;;5116448;28;19994;-47
2022/04/24 14:11:57;;;;;;;;;;;;;;;;;;5116618;28;19995;-42
2022/04/24 14:14:23;;;;;;;;;;;;;;;;;;5117129;28;20318;-46
2022/04/24 14:16:50;;;;;;;;;;;;;;;;;;5116307;28;20270;-50
2022/04/24 14:19:16;;;;;;;;;;;;;;;;;;5116087;28;19908;-53
2022/04/24 14:21:43;;;;;;;;;;;;;;;;;;5115688;28;19908;-54
2022/04/24 14:24:09;;;;;;;;;;;;;;;;;;5115825;28;19908;-56
2022/04/24 14:26:36;;;;;;;;;;;;;;;;;;5115947;28;19908;-50
2022/04/24 14:29:03;;;;;;;;;;;;;;;;;;5115698;28;19922;-43
2022/04/24 14:31:29;;;;;;;;;;;;;;;;;;5115906;28;19933;-44
2022/04/24 14:33:56;;;;;;;;;;;;;;;;;;5115939;28;19930;-50
2022/04/24 14:36:23;;;;;;;;;;;;;;;;;;5116173;28;19915;-55
2022/04/24 14:38:49;;;;;;;;;;;;;;;;;;5115824;28;19915;-44
2022/04/24 14:41:16;;;;;;;;;;;;;;;;;;5115001;28;19961;-49
2022/04/24 14:43:42;;;;;;;;;;;;;;;;;;5116025;28;19912;-55
2022/04/24 14:57:07;;;;;;;;;;;;;;;;;;5115699;28;19977;-52
2022/04/24 14:59:36;;;;;;;;;;;;;;;;;;5115530;28;19914;-51
2022/04/24 15:02:03;;;;;;;;;;;;;;;;;;5115490;28;20012;-49
2022/04/24 15:04:29;;;;;;;;;;;;;;;;;;5115366;28;20102;-51
2022/04/24 15:06:56;;;;;;;;;;;;;;;;;;5115521;28;19961;-50
2022/04/24 15:09:22;;;;;;;;;;;;;;;;;;5115149;28;19907;-53
2022/04/24 15:11:49;;;;;;;;;;;;;;;;;;5114574;28;20377;-41
2022/04/24 15:14:15;;;;;;;;;;;;;;;;;;5115204;28;19908;-45
2022/04/24 15:16:42;;;;;;;;;;;;;;;;;;5115280;28;19908;-49
2022/04/24 15:19:08;;;;;;;;;;;;;;;;;;5114884;28;19926;-52
2022/04/24 15:21:35;;;;;;;;;;;;;;;;;;5114634;28;19922;-51
2022/04/24 15:24:09;;;;;;;;;;;;;;;;;;5115514;28;19923;-49
2022/04/24 15:26:35;;;;;;;;;;;;;;;;;;5114919;28;19953;-50
2022/04/24 15:29:03;;;;;;;;;;;;;;;;;;5114971;28;19907;-53
2022/04/24 15:31:30;;;;;;;;;;;;;;;;;;5114890;28;19919;-49
2022/04/24 15:33:58;;;;;;;;;;;;;;;;;;5114950;28;19908;-52
2022/04/24 15:36:24;;;;;;;;;;;;;;;;;;5114032;28;19930;-50
2022/04/24 15:38:51;;;;;;;;;;;;;;;;;;5114649;28;19908;-51
2022/04/24 15:41:18;;;;;;;;;;;;;;;;;;5113959;28;20330;-53
2022/04/24 15:43:44;;;;;;;;;;;;;;;;;;5114298;28;19907;-58
2022/04/24 15:46:11;;;;;;;;;;;;;;;;;;5114567;28;20341;-55
2022/04/24 15:48:37;;;;;;;;;;;;;;;;;;5114374;28;20354;-57
2022/04/24 15:51:04;;;;;;;;;;;;;;;;;;5114250;28;20358;-56
2022/04/24 15:53:31;;;;;;;;;;;;;;;;;;5114434;28;19930;-54
2022/04/24 15:55:58;;;;;;;;;;;;;;;;;;5114145;28;20370;-53
2022/04/24 15:58:25;;;;;;;;;;;;;;;;;;5098025;28;20366;-56
2022/04/24 16:00:51;;;;;;;;;;;;;;;;;;5093989;28;20334;-56
2022/04/24 16:03:18;;;;;;;;;;;;;;;;;;5097428;28;19990;-51
2022/04/24 16:05:45;;;;;;;;;;;;;;;;;;5114271;28;19919;-54
2022/04/24 16:08:11;;;;;;;;;;;;;;;;;;5114017;28;20337;-52
2022/04/24 16:10:38;;;;;;;;;;;;;;;;;;5112449;28;20074;-45
2022/04/24 16:13:04;;;;;;;;;;;;;;;;;;5113892;28;19908;-56
2022/04/24 16:15:31;;;;;;;;;;;;;;;;;;5114260;28;19930;-52
2022/04/24 16:17:57;;;;;;;;;;;;;;;;;;5113801;28;19908;-55
2022/04/24 16:20:24;;;;;;;;;;;;;;;;;;5114173;28;19908;-53
2022/04/24 16:22:50;;;;;;;;;;;;;;;;;;5114102;28;19912;-54
2022/04/24 16:25:20;;;;;;;;;;;;;;;;;;5101679;28;19912;-49
2022/04/24 16:27:47;;;;;;;;;;;;;;;;;;5093521;28;19917;-50
2022/04/24 16:30:14;;;;;;;;;;;;;;;;;;5093564;28;20352;-57
2022/04/24 16:35:25;;;;;;;;;;;;;;;;;;5113700;28;19932;-53
2022/04/24 16:37:54;;;;;;;;;;;;;;;;;;5114006;28;20455;-56
2022/04/24 16:40:21;;;;;;;;;;;;;;;;;;5113742;28;20312;-57
2022/04/24 16:42:47;;;;;;;;;;;;;;;;;;5113859;28;19958;-56
2022/04/24 16:45:14;;;;;;;;;;;;;;;;;;5114067;28;19908;-53
2022/04/24 16:47:40;;;;;;;;;;;;;;;;;;5112851;28;19920;-52
2022/04/24 16:50:07;;;;;;;;;;;;;;;;;;5113443;28;19915;-42
2022/04/24 17:00:29;;;;;;;;;;;;;;;;;;5113697;28;20316;-48
2022/04/24 17:02:55;;;;;;;;;;;;;;;;;;5113397;28;19908;-42
2022/04/24 17:05:21;;;;;;;;;;;;;;;;;;5112751;28;19920;-39
2022/04/24 17:38:00;;;;;;;;;;;;;;;;;;5113333;28;19919;-55
2022/04/24 17:40:26;;;;;;;;;;;;;;;;;;5112785;28;19915;-53
2022/04/24 17:42:56;;;;;;;;;;;;;;;;;;5113264;28;19915;-51
2022/04/24 17:45:22;;;;;;;;;;;;;;;;;;5112858;28;19912;-50